Airfield :
LOGIN :

Register | Disclaimer

   EN    FR    IT 

 










Legend :    VFR   Marginal VFR   IFR   Intensive IFR   Very Intensive IFR
Visi :
Ceiling :
>= 8 km
>= 3000ft
5 to 8 km
1000 to 3000 ft
1500m to 5 km
500 to 1000 ft
800 to 1500m
200 to 500 ft
< 800m
< 200 ft
Symbols :   Thunderstorms  Fog  Heavy snow  Heavy precipitations  Wind > 20 kt
SIGMETs :     Misc.  Thunderstorms  Icing  Turbulence  Mountain Waves  Volcanic Ashes







- Airport Elevation : 20 ft


EBFN - Koksijde

CURRENT METAR :
  • 220955Z 19012KT 2600 BR BKN007 01/M01 Q1004 BLACKYLO YLO BECMG GRN

EXPIRED METARs :
  • 220925Z 18013KT 2100 BR BKN006 M00/M01 Q1004 BLACKYLO YLO BECMG GRN
  • 220923Z 18013KT 2100 BR BKN006 M00/M01 Q1004 BLACKYLO YLO BECMG GRN
  • 220919Z 18013KT 1800 BR BKN006 M00/M01 Q1004 BLACKYLO YLO TEMPO AMB
  • 220908Z 19012KT 1200 SN BKN006 M00/M01 Q1004 BLACKAMB YLO TEMPO AMB
  • 220855Z 18013KT 1400 -SN BKN006 M00/M01 Q1004 BLACKAMB YLO TEMPO AMB
  • 220840Z 18014KT 1400 SN BKN006 M00/M01 Q1004 BLACKAMB YLO TEMPO AMB
  • 220836Z 18014KT 1600 SN BKN005 BKN020 M00/M01 Q1004 BLACKYLO YLO TEMPO AMB
  • 220822Z 19015KT 1400 SN BKN005 BKN020 M00/M01 Q1004 BLACKAMB YLO TEMPO AMB
  • 220803Z 18014KT 1300 -SN BKN005 BKN020 M00/M01 Q1004 BLACKAMB YLO TEMPO AMB
  • 220755Z 18013KT 1000 SN BKN005 BKN020 M01/M01 Q1004 AMB YLO TEMPO AMB
  • 220733Z 18014KT 1000 +SN BKN005 BKN020 M00/M01 Q1005 AMB YLO TEMPO AMB
  • 220719Z 19015KT 1000 SN BKN005 BKN020 M00/M01 Q1005 AMB YLO TEMPO AMB

TAF TAF EBFN
Valid from the 22 at 10:00 until the 22 at 19:00 UTC


220841Z 2210/2219 19015G28KT 3000 -SN -RASN FEW006 BKN010
BECMG 2209/2211 25007KT 8000 NSW FEW018 BKN180
TEMPO 2209/2219 SCT015 BKN180
BECMG 2217/2219 21006KT
TEMPO 2217/2219 3000 -SHSNRA SCT014
No reported NOTAMs for that airfield.



MET'MAP, your aeronautical weather chart ! - Copyright ORBIFLY December 2007 - Disclaimer

ORBIFLY MET'MAP TEAM :

Programming & Development : Alexandra Zaïnal
Concept & Development : Baudouin d'Aumeries
Co-Development & Prog : Marc-Olivier Méhu
Technical & hardware support : Manuel Goepfert

Contact : metmap@orbifly.com




SOURCES & CREDITS :

   NOAA